Time;durP1;ratioP1;P1;durP2;ratioP2;P2;SDS_P1;SDS_P2;PMS_P1;PMS_P2;Temp;Humidity;BMP_temperature;BMP_pressure;BME280_temperature;BME280_humidity;BME280_pressure;Samples;Min_cycle;Max_cycle;Signal;HPM_P1;HPM_P2
2023/06/27 00:00:48;;;;;;;3.90;3.47;;;;;;;28.48;36.31;96438.75;5036141;28;20160;-30
2023/06/27 00:03:13;;;;;;;5.65;4.10;;;;;;;28.37;36.08;96439.03;5035024;28;20029;-30
2023/06/27 00:05:39;;;;;;;4.90;4.03;;;;;;;28.27;36.85;96440.81;5035313;28;20513;-30
2023/06/27 00:08:06;;;;;;;5.20;4.43;;;;;;;28.36;35.61;96435.50;5035553;28;20018;-30
2023/06/27 00:10:33;;;;;;;5.70;3.72;;;;;;;28.30;35.96;96428.56;5035368;28;20118;-30
2023/06/27 00:12:59;;;;;;;5.38;3.95;;;;;;;28.34;36.27;96438.06;5035224;28;20033;-32
2023/06/27 00:15:26;;;;;;;5.70;3.80;;;;;;;28.46;35.59;96435.75;5034182;28;20462;-30
2023/06/27 00:17:53;;;;;;;6.45;3.95;;;;;;;28.47;36.43;96432.41;5034973;28;20052;-30
2023/06/27 00:20:19;;;;;;;5.53;4.25;;;;;;;28.51;36.05;96427.25;5035063;28;20021;-30
2023/06/27 00:22:46;;;;;;;4.65;3.90;;;;;;;28.52;36.08;96434.31;5042010;28;20029;-30
2023/06/27 00:25:11;;;;;;;6.07;3.50;;;;;;;28.55;36.18;96430.44;5042266;28;20021;-31
2023/06/27 00:27:37;;;;;;;5.35;4.43;;;;;;;28.07;36.62;96429.06;5034599;28;20455;-30
2023/06/27 00:30:03;;;;;;;5.57;4.20;;;;;;;28.22;36.08;96429.25;5034659;28;20490;-30
2023/06/27 00:32:29;;;;;;;4.75;3.78;;;;;;;28.10;35.70;96419.63;5034680;28;20029;-30
2023/06/27 00:34:54;;;;;;;4.63;3.80;;;;;;;28.33;35.77;96419.09;5034448;28;20036;-30
2023/06/27 00:37:19;;;;;;;4.95;4.45;;;;;;;28.27;36.12;96416.47;5041986;28;20064;-31
2023/06/27 00:39:45;;;;;;;5.63;3.63;;;;;;;28.41;35.57;96415.09;5034294;28;20021;-31
2023/06/27 00:42:10;;;;;;;5.88;3.75;;;;;;;28.40;35.52;96405.22;5034023;28;20034;-30
2023/06/27 00:44:36;;;;;;;4.50;4.00;;;;;;;28.35;35.30;96419.31;5034037;28;20018;-30
2023/06/27 00:47:01;;;;;;;5.93;3.88;;;;;;;28.28;35.28;96415.16;5041408;28;20029;-30
2023/06/27 00:49:27;;;;;;;5.55;4.32;;;;;;;28.18;35.34;96414.91;5040822;28;20021;-30
2023/06/27 00:51:54;;;;;;;4.70;4.00;;;;;;;28.31;35.18;96410.56;5033298;28;20045;-30
2023/06/27 00:54:20;;;;;;;5.78;3.78;;;;;;;28.33;34.62;96410.72;5034512;28;20017;-30
2023/06/27 00:56:48;;;;;;;4.45;3.50;;;;;;;28.19;34.75;96408.00;5040926;28;20074;-30
2023/06/27 00:59:13;;;;;;;4.88;3.80;;;;;;;28.13;34.85;96404.59;5034400;28;20044;-30
2023/06/27 01:01:39;;;;;;;5.10;3.70;;;;;;;28.20;35.06;96397.59;5034409;28;20026;-30
2023/06/27 01:04:05;;;;;;;4.55;3.88;;;;;;;28.22;34.90;96400.59;5034131;28;20033;-30
2023/06/27 01:06:54;;;;;;;5.53;4.10;;;;;;;28.29;34.16;96399.19;5033769;28;20470;-30
2023/06/27 01:09:34;;;;;;;5.07;3.72;;;;;;;28.34;34.46;96395.50;5034079;28;20022;-31
2023/06/27 01:12:29;;;;;;;4.20;3.80;;;;;;;28.10;34.50;96397.31;5043433;28;20143;-30
2023/06/27 01:14:57;;;;;;;4.40;3.97;;;;;;;28.25;33.37;96391.16;5046202;28;20482;-30
2023/06/27 01:17:24;;;;;;;5.68;3.83;;;;;;;28.26;34.00;96386.31;5034028;28;20041;-30
2023/06/27 01:19:52;;;;;;;4.75;4.15;;;;;;;28.37;34.02;96391.63;5033647;28;20025;-30
2023/06/27 01:22:29;;;;;;;5.60;3.88;;;;;;;28.33;33.83;96391.19;5033782;28;20025;-31
2023/06/27 01:24:55;;;;;;;5.43;4.15;;;;;;;28.34;33.72;96389.91;5033755;28;20029;-30
2023/06/27 01:27:21;;;;;;;5.15;4.10;;;;;;;28.14;34.01;96397.00;5033513;28;20029;-30
2023/06/27 01:29:46;;;;;;;4.53;4.00;;;;;;;28.28;33.84;96397.69;5034009;28;20024;-30
2023/06/27 01:32:23;;;;;;;5.32;3.95;;;;;;;28.22;33.33;96387.41;5033630;28;20485;-30
2023/06/27 01:35:27;;;;;;;4.70;3.80;;;;;;;28.10;33.83;96388.22;5033600;28;20071;-31
2023/06/27 01:37:56;;;;;;;4.38;3.45;;;;;;;28.23;33.51;96386.13;5024752;28;20079;-30
2023/06/27 01:40:23;;;;;;;4.95;3.72;;;;;;;27.92;33.67;96384.34;5033130;28;20498;-30
2023/06/27 01:42:57;;;;;;;4.40;3.95;;;;;;;28.27;33.48;96385.78;5033514;28;20021;-30
2023/06/27 01:45:23;;;;;;;4.65;3.92;;;;;;;28.15;33.34;96384.53;5033687;28;20021;-30
2023/06/27 01:47:49;;;;;;;4.57;3.80;;;;;;;28.24;33.07;96384.09;5033552;28;20463;-30
2023/06/27 01:50:15;;;;;;;5.65;4.43;;;;;;;28.20;33.52;96383.66;5033832;28;20040;-30
2023/06/27 01:52:41;;;;;;;4.85;3.78;;;;;;;28.19;33.16;96385.72;5033139;28;20028;-31
2023/06/27 01:55:07;;;;;;;6.30;4.00;;;;;;;28.14;33.27;96383.78;5033694;28;20554;-30
2023/06/27 01:57:33;;;;;;;4.95;3.80;;;;;;;28.04;33.02;96396.72;5033282;28;20036;-30
2023/06/27 01:59:59;;;;;;;4.28;3.63;;;;;;;28.11;33.45;96384.88;5033553;28;20021;-30
2023/06/27 02:02:24;;;;;;;6.68;4.15;;;;;;;28.14;33.31;96383.03;5042610;28;20090;-30
2023/06/27 02:04:49;;;;;;;4.50;3.88;;;;;;;28.09;33.46;96384.66;5037575;28;20021;-30
2023/06/27 02:07:15;;;;;;;5.47;3.65;;;;;;;28.21;33.49;96382.38;5037944;28;20025;-30
2023/06/27 02:09:40;;;;;;;5.30;4.10;;;;;;;28.29;33.08;96379.66;5037512;28;20043;-30
2023/06/27 02:12:09;;;;;;;5.70;4.03;;;;;;;28.13;33.17;96378.75;5037810;28;20009;-30
2023/06/27 02:14:34;;;;;;;5.43;4.05;;;;;;;28.15;33.25;96373.41;5036993;28;20108;-31
2023/06/27 02:17:00;;;;;;;5.15;3.75;;;;;;;28.16;33.29;96380.47;5037102;28;20104;-30
2023/06/27 02:19:25;;;;;;;4.50;3.60;;;;;;;28.24;33.45;96387.63;5037260;28;20041;-30
2023/06/27 02:21:51;;;;;;;4.63;3.60;;;;;;;28.19;32.88;96371.75;5036948;28;20029;-30
2023/06/27 02:24:16;;;;;;;5.63;4.25;;;;;;;28.17;33.02;96371.56;5037318;28;20021;-29
2023/06/27 02:26:43;;;;;;;4.90;4.03;;;;;;;28.24;32.57;96376.47;5036748;28;20025;-30
2023/06/27 02:29:09;;;;;;;4.97;3.92;;;;;;;28.20;32.50;96370.47;5037258;28;20430;-29
2023/06/27 02:31:34;;;;;;;4.63;3.65;;;;;;;28.17;31.98;96371.56;5036916;28;20071;-29
2023/06/27 02:34:01;;;;;;;4.18;3.70;;;;;;;28.18;32.06;96373.09;5036861;28;20442;-30
2023/06/27 02:36:27;;;;;;;6.28;4.05;;;;;;;28.21;32.89;96365.66;5037018;28;20026;-29
2023/06/27 02:38:54;;;;;;;5.47;4.00;;;;;;;28.20;32.06;96373.25;5036621;28;20112;-29
2023/06/27 02:41:23;;;;;;;5.35;4.55;;;;;;;28.32;31.97;96364.59;5036894;28;20140;-29
2023/06/27 02:43:49;;;;;;;4.63;3.72;;;;;;;28.23;32.52;96358.25;5036922;28;20441;-31
2023/06/27 02:46:15;;;;;;;5.60;3.85;;;;;;;28.12;32.44;96369.66;5039865;28;20462;-29
2023/06/27 02:48:41;;;;;;;4.72;4.07;;;;;;;28.18;32.16;96366.75;5037148;28;20040;-29
2023/06/27 02:51:06;;;;;;;4.45;3.78;;;;;;;28.27;32.07;96359.94;5036735;28;20049;-29
2023/06/27 02:53:31;;;;;;;4.55;4.05;;;;;;;28.29;32.38;96360.16;5036571;28;20478;-29
2023/06/27 02:56:01;;;;;;;5.32;4.20;;;;;;;28.12;31.93;96364.06;5036069;28;20029;-30
2023/06/27 02:58:26;;;;;;;4.88;3.67;;;;;;;28.20;31.97;96364.16;5036560;28;20026;-30
2023/06/27 03:00:52;;;;;;;6.35;3.80;;;;;;;28.23;31.72;96363.81;5036137;28;20450;-30
2023/06/27 03:03:17;;;;;;;4.47;3.47;;;;;;;28.26;32.65;96356.41;5036109;28;20021;-30
2023/06/27 03:05:43;;;;;;;4.93;3.65;;;;;;;28.24;31.81;96359.00;5036969;28;20447;-29
2023/06/27 03:08:08;;;;;;;5.57;3.58;;;;;;;28.13;31.26;96360.00;5043153;28;20017;-29
2023/06/27 03:10:34;;;;;;;5.95;3.58;;;;;;;28.27;31.94;96362.72;5036183;28;20471;-30
2023/06/27 03:12:59;;;;;;;4.35;3.55;;;;;;;28.22;31.22;96358.78;5039279;28;20029;-30
2023/06/27 03:15:24;;;;;;;8.15;4.15;;;;;;;28.05;31.03;96358.44;5041163;28;20063;-30
2023/06/27 03:17:50;;;;;;;5.00;3.42;;;;;;;28.08;30.36;96355.28;5036122;28;20359;-30
2023/06/27 03:20:16;;;;;;;4.82;3.65;;;;;;;28.06;30.96;96363.47;5036325;28;20018;-29
2023/06/27 03:22:41;;;;;;;4.40;3.60;;;;;;;28.18;30.65;96359.16;5035811;28;20382;-30
2023/06/27 03:25:10;;;;;;;4.43;3.63;;;;;;;28.14;30.41;96358.69;5035813;28;20035;-30
2023/06/27 03:27:36;;;;;;;5.25;3.65;;;;;;;28.13;30.42;96357.22;5035704;28;20029;-30
2023/06/27 03:30:02;;;;;;;4.70;3.78;;;;;;;28.10;30.93;96355.50;5035781;28;20483;-30
2023/06/27 03:32:27;;;;;;;5.28;3.35;;;;;;;28.07;30.79;96353.81;5042576;28;20048;-29
2023/06/27 03:34:53;;;;;;;4.43;3.70;;;;;;;28.07;30.28;96356.59;5035763;28;20048;-29
2023/06/27 03:37:19;;;;;;;4.47;3.80;;;;;;;28.07;30.49;96347.47;5035754;28;20020;-30
2023/06/27 03:39:45;;;;;;;5.13;3.63;;;;;;;28.12;30.63;96352.91;5035471;28;20021;-30
2023/06/27 03:42:11;;;;;;;4.47;3.60;;;;;;;28.06;30.17;96352.34;5035583;28;20087;-30
2023/06/27 03:44:36;;;;;;;6.25;3.30;;;;;;;28.08;30.44;96341.34;5035688;28;20026;-30
2023/06/27 03:47:02;;;;;;;6.15;3.55;;;;;;;28.10;30.32;96349.94;5035817;28;20021;-30
2023/06/27 03:49:28;;;;;;;4.22;3.50;;;;;;;28.12;30.63;96346.59;5036177;28;20450;-30
2023/06/27 03:51:53;;;;;;;5.28;4.10;;;;;;;28.12;30.55;96352.16;5035075;28;20048;-30
2023/06/27 03:54:19;;;;;;;4.50;3.38;;;;;;;28.05;29.81;96348.03;5035431;28;20017;-29
2023/06/27 03:56:44;;;;;;;4.18;3.60;;;;;;;28.04;30.53;96349.34;5042950;28;20075;-29
2023/06/27 03:59:10;;;;;;;4.80;3.58;;;;;;;28.09;29.85;96356.03;5035531;28;20492;-29
2023/06/27 04:01:37;;;;;;;5.00;3.42;;;;;;;28.05;30.10;96347.31;5041226;28;20033;-29
2023/06/27 04:04:03;;;;;;;4.22;3.30;;;;;;;28.17;30.65;96357.63;5035693;28;20021;-30
2023/06/27 04:06:28;;;;;;;4.28;3.72;;;;;;;28.05;30.63;96362.00;5034816;28;20482;-29
2023/06/27 04:08:54;;;;;;;4.43;3.40;;;;;;;28.01;30.24;96356.00;5041429;28;20030;-30
2023/06/27 04:11:19;;;;;;;5.68;3.50;;;;;;;28.07;30.30;96351.00;5034930;28;20020;-30
2023/06/27 04:13:45;;;;;;;4.55;3.38;;;;;;;27.96;30.45;96354.09;5035304;28;20120;-29
2023/06/27 04:16:10;;;;;;;5.18;3.85;;;;;;;27.84;30.80;96345.25;5035390;28;20107;-29
2023/06/27 04:18:36;;;;;;;4.97;3.55;;;;;;;28.04;30.51;96348.59;5034616;28;20421;-29
2023/06/27 04:21:01;;;;;;;6.50;3.72;;;;;;;28.08;30.77;96346.94;5034756;28;20371;-31
2023/06/27 04:23:27;;;;;;;5.20;4.03;;;;;;;28.13;30.85;96343.25;5034675;28;20039;-30
2023/06/27 04:26:07;;;;;;;4.55;3.67;;;;;;;28.08;30.88;96344.16;5034701;28;20430;-29
2023/06/27 04:28:34;;;;;;;7.57;4.05;;;;;;;28.01;31.38;96342.06;5034579;28;20030;-29
2023/06/27 04:31:00;;;;;;;4.82;3.60;;;;;;;28.04;30.89;96343.75;5035050;28;20050;-30
2023/06/27 04:33:27;;;;;;;6.15;3.72;;;;;;;27.99;31.88;96341.84;5034782;28;20033;-29
2023/06/27 04:35:54;;;;;;;6.57;3.65;;;;;;;28.04;31.45;96340.22;5034427;28;20375;-30
2023/06/27 04:38:20;;;;;;;4.53;3.40;;;;;;;28.08;31.37;96335.78;5034811;28;20593;-29
2023/06/27 04:40:45;;;;;;;5.05;3.50;;;;;;;28.01;31.15;96339.28;5034678;28;20136;-29
2023/06/27 04:43:13;;;;;;;5.43;4.25;;;;;;;27.94;31.61;96337.19;5034787;28;20013;-30
2023/06/27 04:45:39;;;;;;;4.93;3.53;;;;;;;28.05;31.24;96342.47;5037447;28;20021;-30
2023/06/27 04:48:04;;;;;;;4.75;3.90;;;;;;;28.01;31.50;96332.94;5037933;28;20025;-30
2023/06/27 04:50:30;;;;;;;5.47;4.30;;;;;;;28.00;31.96;96340.56;5034348;28;20052;-29
2023/06/27 04:52:55;;;;;;;4.78;3.80;;;;;;;27.96;31.62;96333.81;5039321;28;20026;-29
2023/06/27 04:55:21;;;;;;;4.85;3.80;;;;;;;28.03;32.56;96331.13;5034152;28;20028;-30
2023/06/27 04:57:47;;;;;;;6.90;3.83;;;;;;;27.97;32.41;96336.06;5041583;28;20028;-29
2023/06/27 05:00:13;;;;;;;4.97;4.35;;;;;;;27.93;32.28;96332.91;5041169;28;20021;-29
2023/06/27 05:02:38;;;;;;;4.40;3.92;;;;;;;28.02;32.37;96334.44;5033901;28;20021;-31
2023/06/27 05:05:05;;;;;;;5.18;4.32;;;;;;;28.03;32.13;96331.13;5033808;28;20021;-29
2023/06/27 05:07:30;;;;;;;5.47;4.65;;;;;;;28.02;31.99;96332.41;5033709;28;20474;-29
2023/06/27 05:09:56;;;;;;;7.32;4.28;;;;;;;28.14;32.64;96332.88;5033618;28;20112;-30
2023/06/27 05:12:21;;;;;;;5.03;4.10;;;;;;;28.18;32.49;96334.06;5050991;28;20021;-30
2023/06/27 05:14:47;;;;;;;7.35;4.65;;;;;;;28.00;33.01;96326.63;5035715;28;20471;-29
2023/06/27 05:17:12;;;;;;;6.18;4.60;;;;;;;28.02;32.97;96331.66;5033665;28;20051;-29
2023/06/27 05:19:38;;;;;;;6.00;4.53;;;;;;;28.10;33.23;96333.19;5033665;28;20037;-30
2023/06/27 05:22:03;;;;;;;5.07;4.28;;;;;;;27.88;33.43;96344.91;5040741;28;20021;-30
2023/06/27 05:24:29;;;;;;;5.85;4.53;;;;;;;27.95;33.51;96349.06;5033668;28;20017;-30
2023/06/27 05:26:54;;;;;;;6.32;4.40;;;;;;;28.12;33.26;96347.34;5041268;28;20021;-30
2023/06/27 05:29:19;;;;;;;6.18;5.07;;;;;;;28.14;33.45;96344.00;5033190;28;20013;-29
2023/06/27 05:31:45;;;;;;;5.70;4.35;;;;;;;28.11;33.32;96343.06;5033398;28;20025;-31
2023/06/27 05:34:12;;;;;;;5.90;4.50;;;;;;;28.05;33.83;96342.47;5033477;28;20027;-29
2023/06/27 05:36:37;;;;;;;5.55;4.18;;;;;;;28.04;33.98;96346.56;5032898;28;20079;-30
2023/06/27 05:39:03;;;;;;;5.75;4.03;;;;;;;28.13;34.38;96348.09;5033965;28;20026;-29
2023/06/27 05:41:30;;;;;;;6.07;4.30;;;;;;;28.09;34.92;96344.91;5033545;28;20132;-30
2023/06/27 05:43:55;;;;;;;7.28;4.30;;;;;;;28.06;35.13;96349.53;5033658;28;20049;-29
2023/06/27 05:46:21;;;;;;;6.53;4.18;;;;;;;28.02;35.47;96354.72;5033039;28;20068;-30
2023/06/27 05:48:46;;;;;;;6.35;4.03;;;;;;;28.23;35.27;96340.75;5033685;28;20029;-30
2023/06/27 05:51:12;;;;;;;6.65;3.92;;;;;;;28.02;35.19;96349.13;5033313;28;20018;-29
2023/06/27 05:53:37;;;;;;;7.30;4.13;;;;;;;27.94;35.86;96353.16;5033729;28;20031;-30
2023/06/27 05:56:03;;;;;;;8.25;4.25;;;;;;;28.18;35.79;96350.03;5039480;28;20028;-30
2023/06/27 05:58:29;;;;;;;5.72;3.70;;;;;;;28.06;37.13;96348.78;5046423;28;20108;-32
2023/06/27 06:00:54;;;;;;;5.70;4.32;;;;;;;27.98;37.39;96345.94;5033380;28;20021;-30
2023/06/27 06:03:20;;;;;;;9.05;4.53;;;;;;;28.05;37.61;96347.31;5032731;28;20025;-30
2023/06/27 06:05:45;;;;;;;7.65;3.88;;;;;;;28.10;38.02;96355.50;5034034;28;20126;-30
2023/06/27 06:08:11;;;;;;;10.35;5.22;;;;;;;28.16;37.90;96350.53;5033711;28;20014;-29
2023/06/27 06:10:36;;;;;;;6.20;3.80;;;;;;;28.20;37.95;96359.31;5033385;28;20351;-30
2023/06/27 06:13:02;;;;;;;5.38;4.25;;;;;;;28.18;37.97;96350.78;5033393;28;20159;-29
2023/06/27 06:15:27;;;;;;;5.82;4.05;;;;;;;28.09;38.08;96340.06;5033316;28;20355;-30
2023/06/27 06:17:53;;;;;;;8.32;4.07;;;;;;;28.13;37.84;96357.22;5033170;28;20524;-31
2023/06/27 06:20:19;;;;;;;4.65;4.07;;;;;;;28.16;38.13;96353.34;5032869;28;20426;-30
2023/06/27 06:22:44;;;;;;;7.55;4.00;;;;;;;28.07;38.80;96351.00;5033184;28;20120;-29
2023/06/27 06:25:10;;;;;;;8.68;4.43;;;;;;;27.81;41.66;96359.53;5033299;28;20493;-30
2023/06/27 06:27:35;;;;;;;6.25;4.07;;;;;;;27.71;43.46;96359.25;5032949;28;20025;-29
2023/06/27 06:30:01;;;;;;;7.22;4.38;;;;;;;28.08;41.76;96352.50;5033194;28;20083;-29
2023/06/27 06:32:26;;;;;;;5.88;4.13;;;;;;;27.89;42.35;96368.72;5032871;28;20025;-29
2023/06/27 06:34:53;;;;;;;6.43;4.68;;;;;;;28.13;41.90;96359.25;5033053;28;20025;-30
2023/06/27 06:37:18;;;;;;;8.57;4.82;;;;;;;28.10;42.45;96371.47;5034717;28;20025;-31
2023/06/27 06:39:44;;;;;;;5.18;4.38;;;;;;;27.91;42.95;96366.13;5038309;28;20018;-30
2023/06/27 06:42:10;;;;;;;6.95;4.60;;;;;;;28.09;42.08;96365.16;5032686;28;20045;-30
2023/06/27 06:44:36;;;;;;;8.68;5.13;;;;;;;28.14;41.88;96378.22;5032780;28;20104;-30
2023/06/27 06:47:01;;;;;;;7.53;4.88;;;;;;;27.91;43.14;96371.72;5032766;28;20067;-30
2023/06/27 06:49:26;;;;;;;5.40;4.60;;;;;;;28.13;42.24;96365.56;5037356;28;20101;-30
2023/06/27 06:51:53;;;;;;;7.65;4.72;;;;;;;28.12;42.30;96372.44;5043688;28;20021;-29
2023/06/27 06:54:18;;;;;;;10.13;5.47;;;;;;;28.11;42.87;96376.50;5040285;28;20067;-29
2023/06/27 06:56:43;;;;;;;9.57;4.82;;;;;;;28.22;42.40;96372.72;5036349;28;20029;-30
2023/06/27 06:59:09;;;;;;;11.23;4.80;;;;;;;28.12;42.85;96369.66;5036136;28;20017;-29
2023/06/27 07:01:34;;;;;;;11.02;5.10;;;;;;;28.12;43.10;96380.06;5043248;28;20497;-29
2023/06/27 07:04:00;;;;;;;6.07;4.65;;;;;;;28.28;42.33;96378.16;5036999;28;20013;-30
2023/06/27 07:06:25;;;;;;;6.45;4.45;;;;;;;28.08;42.65;96380.38;5046566;28;20021;-30
2023/06/27 07:08:52;;;;;;;6.75;4.75;;;;;;;28.05;43.40;96391.91;5036054;28;20025;-30
2023/06/27 07:11:18;;;;;;;5.20;4.40;;;;;;;28.40;42.26;96388.50;5036223;28;20601;-30
2023/06/27 07:13:43;;;;;;;9.55;5.35;;;;;;;28.33;42.60;96396.78;5036202;28;20108;-30
2023/06/27 07:16:09;;;;;;;9.15;4.75;;;;;;;27.88;43.78;96390.25;5035806;28;20021;-29
2023/06/27 07:18:34;;;;;;;6.68;4.80;;;;;;;28.19;43.30;96385.72;5042943;28;20140;-30
2023/06/27 07:21:00;;;;;;;7.28;4.70;;;;;;;28.19;43.23;96382.16;5036193;28;20032;-29
2023/06/27 07:23:25;;;;;;;5.35;4.45;;;;;;;28.28;42.92;96390.06;5035940;28;20033;-30
2023/06/27 07:25:51;;;;;;;6.30;4.75;;;;;;;28.37;42.36;96389.56;5039829;28;20030;-30
2023/06/27 07:28:16;;;;;;;8.85;5.05;;;;;;;28.40;42.56;96388.50;5035930;28;20117;-29
2023/06/27 07:30:45;;;;;;;5.28;4.47;;;;;;;28.31;42.98;96391.03;5041401;28;20024;-30
2023/06/27 07:33:12;;;;;;;6.95;4.53;;;;;;;28.34;42.62;96393.44;5037384;28;20414;-30
2023/06/27 07:35:37;;;;;;;7.25;5.10;;;;;;;28.45;42.58;96384.03;5035806;28;20079;-30
2023/06/27 07:38:03;;;;;;;7.30;5.45;;;;;;;28.37;42.57;96384.00;5035430;28;20037;-30
2023/06/27 07:40:28;;;;;;;13.52;4.95;;;;;;;28.52;42.47;96394.53;5042885;28;20040;-30
2023/06/27 07:42:54;;;;;;;7.85;4.45;;;;;;;28.37;42.86;96394.41;5035728;28;20028;-30
2023/06/27 07:45:19;;;;;;;10.48;4.72;;;;;;;28.42;42.80;96390.72;5035370;28;20017;-30
2023/06/27 07:47:44;;;;;;;5.32;4.50;;;;;;;28.45;42.78;96389.63;5035855;28;20375;-30
2023/06/27 07:50:10;;;;;;;5.97;4.65;;;;;;;28.47;43.17;96387.03;5035754;28;20013;-29
2023/06/27 07:52:35;;;;;;;11.15;4.72;;;;;;;28.54;43.05;96387.09;5035529;28;20025;-30
2023/06/27 07:55:01;;;;;;;6.72;5.03;;;;;;;28.58;42.61;96386.72;5035114;28;20371;-29
2023/06/27 07:57:26;;;;;;;6.65;4.25;;;;;;;28.44;42.78;96399.28;5035415;28;20025;-30
2023/06/27 07:59:52;;;;;;;6.70;4.65;;;;;;;28.51;42.64;96395.81;5039482;28;20029;-30
2023/06/27 08:02:17;;;;;;;6.70;4.43;;;;;;;28.45;42.74;96390.38;5039377;28;20328;-29
2023/06/27 08:04:43;;;;;;;5.63;4.68;;;;;;;28.63;41.85;96397.00;5035418;28;20048;-29
2023/06/27 08:07:08;;;;;;;7.30;4.30;;;;;;;28.50;42.30;96397.84;5035036;28;20021;-29
2023/06/27 08:09:34;;;;;;;7.82;4.88;;;;;;;28.55;42.10;96387.84;5035466;28;20422;-30
2023/06/27 08:11:59;;;;;;;6.85;4.38;;;;;;;28.48;42.23;96394.09;5042138;28;20013;-30
2023/06/27 08:14:27;;;;;;;6.97;4.78;;;;;;;28.41;42.34;96392.78;5035097;28;20071;-29
2023/06/27 08:16:52;;;;;;;5.38;4.35;;;;;;;28.51;41.79;96393.03;5035255;28;20529;-30
2023/06/27 08:19:18;;;;;;;8.07;4.50;;;;;;;28.45;41.86;96389.63;5034995;28;20059;-30
2023/06/27 08:21:43;;;;;;;7.15;4.88;;;;;;;28.50;41.88;96380.38;5034658;28;20030;-30
2023/06/27 08:24:09;;;;;;;6.45;4.40;;;;;;;28.40;42.21;96387.75;5035150;28;20021;-31
2023/06/27 08:26:34;;;;;;;5.10;4.35;;;;;;;28.55;42.04;96388.59;5034921;28;20052;-29
2023/06/27 08:29:00;;;;;;;5.50;4.47;;;;;;;28.44;41.87;96388.88;5035050;28;20407;-30
2023/06/27 08:31:25;;;;;;;7.15;4.50;;;;;;;28.35;41.96;96388.63;5035114;28;20028;-30
2023/06/27 08:33:50;;;;;;;7.05;4.50;;;;;;;28.47;41.80;96396.16;5034455;28;20033;-30
2023/06/27 08:36:16;;;;;;;6.38;4.60;;;;;;;28.51;41.40;96385.41;5034914;28;20025;-29
2023/06/27 08:38:42;;;;;;;6.60;4.50;;;;;;;28.55;41.07;96382.28;5034470;28;20034;-30
2023/06/27 08:41:09;;;;;;;9.02;4.35;;;;;;;28.48;41.12;96391.31;5034521;28;20486;-29
2023/06/27 08:43:35;;;;;;;7.47;4.47;;;;;;;28.52;41.13;96402.88;5034426;28;20065;-30
2023/06/27 08:46:02;;;;;;;9.98;4.10;;;;;;;28.53;41.53;96384.84;5033345;28;20061;-30
2023/06/27 08:48:28;;;;;;;5.45;4.40;;;;;;;28.47;41.72;96393.34;5046847;28;20414;-30
2023/06/27 08:50:55;;;;;;;8.02;4.30;;;;;;;28.56;41.51;96394.94;5033915;28;20112;-30
2023/06/27 08:53:27;;;;;;;9.35;4.60;;;;;;;28.59;41.46;96393.81;5034313;28;20467;-29
2023/06/27 08:56:07;;;;;;;6.93;4.25;;;;;;;28.61;41.41;96396.81;5034434;28;20610;-29
2023/06/27 08:58:46;;;;;;;5.95;4.20;;;;;;;28.61;41.81;96396.81;5042550;28;20099;-30
2023/06/27 09:01:12;;;;;;;8.20;4.60;;;;;;;28.67;40.97;96399.47;5038805;28;20025;-30
2023/06/27 09:03:37;;;;;;;6.70;4.72;;;;;;;28.69;41.02;96397.59;5034523;28;20028;-30
2023/06/27 09:06:05;;;;;;;6.47;4.15;;;;;;;28.70;40.77;96395.53;5034126;28;20020;-30
2023/06/27 09:08:32;;;;;;;6.40;4.68;;;;;;;28.69;41.04;96397.59;5033622;28;20462;-31
2023/06/27 09:10:59;;;;;;;5.55;4.50;;;;;;;28.72;41.09;96399.28;5033397;28;20044;-29
2023/06/27 09:13:24;;;;;;;6.55;4.70;;;;;;;28.71;41.03;96400.59;5041140;28;20029;-30
2023/06/27 09:15:49;;;;;;;7.25;4.80;;;;;;;28.72;41.41;96404.13;5034155;28;20035;-30
2023/06/27 09:18:15;;;;;;;7.28;4.70;;;;;;;28.70;41.66;96398.34;5033564;28;20032;-30
2023/06/27 09:20:41;;;;;;;7.38;4.88;;;;;;;28.76;41.12;96396.16;5033558;28;20025;-30
2023/06/27 09:23:07;;;;;;;5.68;4.20;;;;;;;28.69;40.49;96386.44;5033668;28;20017;-29
2023/06/27 09:25:33;;;;;;;6.15;4.60;;;;;;;28.82;39.85;96400.31;5039411;28;20028;-30
2023/06/27 09:28:12;;;;;;;4.55;4.10;;;;;;;28.80;39.32;96396.59;5036101;28;20025;-30
2023/06/27 09:30:38;;;;;;;8.45;4.93;;;;;;;28.78;38.75;96394.34;5033337;28;20052;-30
2023/06/27 09:33:04;;;;;;;6.80;4.32;;;;;;;28.76;38.25;96391.31;5037639;28;20036;-30
2023/06/27 09:35:31;;;;;;;9.68;4.45;;;;;;;28.71;38.54;96395.00;5040729;28;20071;-30
2023/06/27 09:38:08;;;;;;;5.72;4.30;;;;;;;28.78;38.71;96388.75;5046936;28;20429;-30
2023/06/27 09:40:35;;;;;;;5.75;4.00;;;;;;;28.81;37.83;96390.44;5033582;28;20047;-29
2023/06/27 09:43:01;;;;;;;6.53;4.30;;;;;;;28.74;38.13;96388.31;5033559;28;20017;-30
2023/06/27 09:45:29;;;;;;;6.32;4.43;;;;;;;28.80;37.88;96385.44;5033538;28;20025;-30
2023/06/27 09:47:55;;;;;;;5.18;4.10;;;;;;;28.77;38.03;96387.25;5033407;28;20021;-30
2023/06/27 09:50:31;;;;;;;4.75;4.10;;;;;;;28.76;37.91;96380.16;5033061;28;20021;-30
2023/06/27 09:53:02;;;;;;;5.97;4.22;;;;;;;28.73;37.84;96386.84;5036069;28;20044;-30
2023/06/27 09:55:28;;;;;;;12.75;4.40;;;;;;;28.82;37.27;96383.56;5035426;28;20079;-30
2023/06/27 09:57:54;;;;;;;9.05;4.40;;;;;;;28.83;37.79;96373.88;5033439;28;20033;-30
2023/06/27 10:00:21;;;;;;;7.57;4.30;;;;;;;28.87;38.34;96379.13;5033243;28;20021;-29
2023/06/27 10:02:50;;;;;;;6.65;4.25;;;;;;;28.91;38.82;96385.09;5033415;28;20557;-30
2023/06/27 10:05:17;;;;;;;5.38;4.57;;;;;;;28.92;39.28;96381.03;5033076;28;20025;-29
2023/06/27 10:07:44;;;;;;;6.22;4.40;;;;;;;28.87;39.47;96385.44;5033218;28;20025;-30
2023/06/27 10:10:10;;;;;;;7.47;4.60;;;;;;;28.93;39.38;96382.53;5035616;28;20028;-30
2023/06/27 10:12:36;;;;;;;5.85;4.35;;;;;;;28.98;39.46;96386.44;5038971;28;20026;-29
2023/06/27 10:15:03;;;;;;;6.93;4.90;;;;;;;28.98;39.38;96376.00;5033621;28;20022;-29
2023/06/27 10:17:28;;;;;;;7.60;4.93;;;;;;;28.95;39.57;96379.91;5032985;28;20025;-29
2023/06/27 10:19:55;;;;;;;9.20;4.65;;;;;;;28.90;39.98;96378.78;5033103;28;20083;-29
2023/06/27 10:22:26;;;;;;;6.93;4.82;;;;;;;28.92;39.95;96373.41;5033947;28;20358;-30
2023/06/27 10:24:56;;;;;;;5.82;4.40;;;;;;;29.03;39.69;96379.94;5037362;28;20037;-29
2023/06/27 10:27:21;;;;;;;7.22;4.80;;;;;;;28.99;39.65;96376.75;5037068;28;20029;-30
2023/06/27 10:29:47;;;;;;;8.40;4.63;;;;;;;29.02;39.75;96379.19;5036707;28;20071;-30
2023/06/27 10:32:19;;;;;;;7.22;4.03;;;;;;;29.04;39.74;96379.41;5037461;28;20367;-30
2023/06/27 10:34:45;;;;;;;5.32;4.20;;;;;;;29.05;39.53;96368.97;5037255;28;20028;-30
2023/06/27 10:37:20;;;;;;;7.28;4.53;;;;;;;29.01;39.67;96372.13;5037018;28;20071;-30
2023/06/27 10:39:56;;;;;;;6.75;4.20;;;;;;;29.04;39.69;96376.63;5036803;28;20021;-30
2023/06/27 10:42:21;;;;;;;9.25;4.93;;;;;;;29.03;39.43;96369.53;5036445;28;20122;-30
2023/06/27 10:45:08;;;;;;;5.63;4.70;;;;;;;29.16;39.38;96369.41;5036308;28;20159;-30
2023/06/27 10:47:43;;;;;;;7.45;4.90;;;;;;;29.10;39.34;96363.22;5036726;28;20478;-30
2023/06/27 10:50:13;;;;;;;7.25;4.10;;;;;;;29.22;39.05;96369.97;5036628;28;20028;-30
2023/06/27 10:52:40;;;;;;;7.32;4.57;;;;;;;29.18;39.38;96363.97;5036870;28;20017;-30
2023/06/27 10:55:15;;;;;;;7.45;4.47;;;;;;;29.22;38.74;96363.63;5036468;28;20108;-29
2023/06/27 10:57:44;;;;;;;7.60;5.45;;;;;;;29.14;38.95;96358.03;5036724;28;20020;-30
2023/06/27 11:00:13;;;;;;;7.18;4.40;;;;;;;29.22;38.64;96355.25;5042189;28;20481;-30
2023/06/27 11:02:44;;;;;;;5.88;4.47;;;;;;;29.13;38.97;96358.59;5037208;28;20489;-30
2023/06/27 11:05:15;;;;;;;6.57;4.05;;;;;;;29.17;38.81;96351.34;5036440;28;20021;-29
2023/06/27 11:07:51;;;;;;;5.93;4.13;;;;;;;29.21;38.24;96356.56;5036736;28;20026;-30
2023/06/27 11:10:29;;;;;;;5.70;4.05;;;;;;;29.28;38.03;96339.84;5036285;28;20032;-30
2023/06/27 11:13:14;;;;;;;5.90;3.85;;;;;;;29.24;38.00;96339.44;5036234;28;20079;-29
2023/06/27 11:15:44;;;;;;;5.30;4.30;;;;;;;29.23;37.97;96337.94;5035798;28;20028;-30
2023/06/27 11:18:16;;;;;;;6.38;4.32;;;;;;;29.29;38.30;96340.59;5043664;28;20052;-29
2023/06/27 11:20:43;;;;;;;9.05;4.53;;;;;;;29.28;38.31;96339.09;5036529;28;20021;-31
2023/06/27 11:23:09;;;;;;;7.55;4.75;;;;;;;29.31;38.32;96338.72;5035765;28;20539;-29
2023/06/27 11:25:42;;;;;;;7.13;4.45;;;;;;;29.31;38.47;96335.16;5043581;28;20029;-30
2023/06/27 11:28:08;;;;;;;6.32;4.90;;;;;;;29.36;38.01;96331.47;5035994;28;20067;-30
2023/06/27 11:30:33;;;;;;;6.78;3.97;;;;;;;29.35;37.72;96332.03;5040197;28;20048;-30
2023/06/27 11:33:01;;;;;;;6.07;4.38;;;;;;;29.41;37.87;96330.59;5038317;28;20111;-30